Time;durP1;ratioP1;P1;durP2;ratioP2;P2;SDS_P1;SDS_P2;PMS_P1;PMS_P2;Temp;Humidity;BMP_temperature;BMP_pressure;BME280_temperature;BME280_humidity;BME280_pressure;Samples;Min_cycle;Max_cycle;Signal;HPM_P1;HPM_P2
2024/01/10 00:00:15;;;;;;;17.33;11.35;;;-3274.00;90.10;;;;;;5011403;28;20022;-40
2024/01/10 00:02:42;;;;;;;17.13;11.40;;;-3274.00;90.00;;;;;;4994191;28;20348;-40
2024/01/10 00:05:09;;;;;;;17.02;11.82;;;-3274.00;89.90;;;;;;4991526;28;20027;-40
2024/01/10 00:07:36;;;;;;;17.38;11.27;;;-3274.00;90.00;;;;;;5011038;28;20019;-42
2024/01/10 00:10:04;;;;;;;17.02;12.57;;;-3273.90;90.00;;;;;;5011320;28;20026;-40
2024/01/10 00:12:34;;;;;;;15.50;11.50;;;-3274.00;90.10;;;;;;5008366;28;20117;-40
2024/01/10 00:15:05;;;;;;;16.48;11.82;;;-3274.00;90.00;;;;;;4991716;28;20023;-40
2024/01/10 00:17:31;;;;;;;16.27;11.07;;;-3274.00;90.10;;;;;;4991422;28;20026;-40
2024/01/10 00:19:57;;;;;;;18.25;11.75;;;-3273.90;90.10;;;;;;4991359;28;20408;-40
2024/01/10 00:22:24;;;;;;;18.60;12.13;;;-3273.90;90.10;;;;;;5002207;28;20033;-40
2024/01/10 00:24:51;;;;;;;18.20;12.02;;;-3273.90;90.10;;;;;;5010740;28;20103;-40
2024/01/10 00:27:17;;;;;;;20.10;13.88;;;-3273.90;90.30;;;;;;5004113;28;20084;-41
2024/01/10 00:29:46;;;;;;;16.00;11.57;;;-3274.00;90.30;;;;;;4991127;28;20479;-40
2024/01/10 00:32:15;;;;;;;19.70;12.63;;;-3273.90;90.10;;;;;;4991753;28;20034;-40
2024/01/10 00:34:41;;;;;;;16.33;12.88;;;-3273.90;90.20;;;;;;4990990;28;20060;-40
2024/01/10 00:37:10;;;;;;;21.67;12.80;;;-3273.90;90.10;;;;;;5058318;28;20027;-40
2024/01/10 00:39:37;;;;;;;17.38;12.50;;;-3273.90;90.30;;;;;;5004887;28;20510;-41
2024/01/10 00:42:03;;;;;;;17.83;13.20;;;-3273.90;90.50;;;;;;4990921;28;20038;-40
2024/01/10 00:44:32;;;;;;;19.50;13.00;;;-3274.00;90.50;;;;;;5005843;28;20128;-40
2024/01/10 00:46:57;;;;;;;22.70;14.10;;;-3274.00;90.60;;;;;;5010628;28;20518;-42
2024/01/10 00:49:26;;;;;;;21.50;12.38;;;-3274.00;90.60;;;;;;5010817;28;20098;-40
2024/01/10 00:51:57;;;;;;;20.65;14.57;;;-3274.10;91.00;;;;;;5029930;28;20026;-40
2024/01/10 00:54:24;;;;;;;20.13;13.77;;;-3274.20;91.20;;;;;;5008365;28;20133;-40
2024/01/10 00:56:53;;;;;;;20.80;14.32;;;-3274.30;91.30;;;;;;5010350;28;20030;-40
2024/01/10 00:59:20;;;;;;;21.90;13.60;;;-3274.30;91.20;;;;;;5010616;28;20026;-40
2024/01/10 01:01:47;;;;;;;20.88;14.50;;;-3274.30;91.10;;;;;;5010320;28;20116;-40
2024/01/10 01:04:14;;;;;;;18.75;14.85;;;-3274.30;91.20;;;;;;5009203;28;20071;-40
2024/01/10 01:06:41;;;;;;;21.27;14.73;;;-3274.30;91.30;;;;;;5008726;28;20034;-41
2024/01/10 01:09:06;;;;;;;22.17;14.60;;;-3274.40;91.40;;;;;;5008561;28;20134;-40
2024/01/10 01:11:33;;;;;;;19.85;14.48;;;-3274.40;91.50;;;;;;5008694;28;20029;-40
2024/01/10 01:14:01;;;;;;;22.65;16.13;;;-3274.50;91.40;;;;;;5008737;28;20037;-40
2024/01/10 01:16:28;;;;;;;25.25;16.77;;;-3274.50;91.40;;;;;;5008350;28;20466;-40
2024/01/10 01:18:58;;;;;;;23.27;16.38;;;-3274.50;91.50;;;;;;5009141;28;20101;-40
2024/01/10 01:21:25;;;;;;;24.27;17.70;;;-3274.60;91.50;;;;;;4992048;28;20378;-42
2024/01/10 01:23:52;;;;;;;26.60;18.77;;;-3274.60;91.80;;;;;;5009552;28;20071;-40
2024/01/10 01:26:19;;;;;;;34.28;18.88;;;-3274.60;91.90;;;;;;5009579;28;20081;-40
2024/01/10 01:28:46;;;;;;;27.67;19.58;;;-3274.60;92.00;;;;;;4991881;28;20022;-40
2024/01/10 01:31:13;;;;;;;30.88;19.25;;;-3274.60;92.10;;;;;;4992110;28;20094;-40
2024/01/10 01:33:40;;;;;;;25.15;15.88;;;-3274.60;92.30;;;;;;4992790;28;20033;-40
2024/01/10 01:36:07;;;;;;;26.08;17.00;;;-3274.60;92.30;;;;;;5011497;28;20389;-41
2024/01/10 01:38:36;;;;;;;32.28;17.95;;;-3274.50;92.30;;;;;;5072490;27;20102;-40
2024/01/10 01:41:05;;;;;;;;;;;-3274.50;92.20;;;;;;5133240;27;20035;-40
2024/01/10 01:43:35;;;;;;;31.35;17.35;;;-3274.50;92.50;;;;;;5100694;27;19921;-41
2024/01/10 01:46:03;;;;;;;53.22;19.65;;;-3274.50;92.40;;;;;;4991774;28;20030;-40
2024/01/10 01:48:34;;;;;;;26.50;16.92;;;-3274.40;92.30;;;;;;5009161;28;20036;-40
2024/01/10 01:51:06;;;;;;;28.15;18.17;;;-3274.30;92.50;;;;;;5009171;28;20328;-41
2024/01/10 01:53:38;;;;;;;28.95;18.20;;;-3274.40;92.80;;;;;;5009159;28;20030;-40
2024/01/10 01:56:09;;;;;;;26.75;16.55;;;-3274.50;92.80;;;;;;5009051;28;20022;-43
2024/01/10 01:58:37;;;;;;;24.58;16.20;;;-3274.50;92.80;;;;;;4991449;28;20053;-39
2024/01/10 02:01:07;;;;;;;29.42;17.33;;;-3274.40;92.60;;;;;;4991518;28;20068;-40
2024/01/10 02:03:34;;;;;;;29.70;19.27;;;-3274.40;92.80;;;;;;5009674;28;20034;-40
2024/01/10 02:06:03;;;;;;;28.23;18.48;;;-3274.40;92.70;;;;;;5009444;28;20087;-40
2024/01/10 02:08:33;;;;;;;27.63;17.50;;;-3274.40;92.80;;;;;;5009640;28;20018;-41
2024/01/10 02:11:01;;;;;;;27.67;16.10;;;-3274.40;92.60;;;;;;5018125;28;20576;-40
2024/01/10 02:13:32;;;;;;;27.52;18.63;;;-3274.40;92.70;;;;;;5028892;28;20030;-40
2024/01/10 02:15:59;;;;;;;25.88;17.55;;;-3274.40;92.70;;;;;;5013220;28;20458;-40
2024/01/10 02:18:29;;;;;;;27.55;18.73;;;-3274.30;92.60;;;;;;5010444;28;20030;-40
2024/01/10 02:20:57;;;;;;;29.13;18.55;;;-3274.40;92.60;;;;;;5012715;28;20026;-40
2024/01/10 02:23:24;;;;;;;28.08;17.95;;;-3274.40;92.60;;;;;;5012905;28;20123;-42
2024/01/10 02:25:53;;;;;;;29.60;18.08;;;-3274.40;92.50;;;;;;5012698;28;20090;-41
2024/01/10 02:28:20;;;;;;;26.65;16.20;;;-3274.30;92.40;;;;;;5012729;28;20038;-40
2024/01/10 02:30:47;;;;;;;29.77;16.15;;;-3274.20;92.40;;;;;;5012673;28;20032;-40
2024/01/10 02:33:16;;;;;;;23.67;14.63;;;-3274.20;92.40;;;;;;4995134;28;20030;-41
2024/01/10 02:35:41;;;;;;;25.33;16.77;;;-3274.10;92.40;;;;;;5012612;28;20121;-41
2024/01/10 02:38:07;;;;;;;25.98;15.85;;;-3274.10;92.40;;;;;;5042748;27;20423;-42
2024/01/10 02:40:36;;;;;;;23.60;14.85;;;-3274.10;92.40;;;;;;5136937;27;20503;-41
2024/01/10 02:43:02;;;;;;;29.30;18.23;;;-3274.10;92.40;;;;;;5099609;27;20122;-44
2024/01/10 02:45:29;;;;;;;24.27;16.15;;;-3274.10;92.40;;;;;;5012892;28;20030;-41
2024/01/10 02:47:55;;;;;;;34.17;17.42;;;-3274.10;92.50;;;;;;5012381;28;20025;-40
2024/01/10 02:50:22;;;;;;;21.25;13.55;;;-3274.10;92.50;;;;;;5012505;28;20077;-41
2024/01/10 02:52:47;;;;;;;32.15;16.27;;;-3274.10;92.70;;;;;;5012281;28;20041;-40
2024/01/10 02:55:17;;;;;;;27.33;15.63;;;-3274.10;92.70;;;;;;5012250;28;20159;-42
2024/01/10 02:57:43;;;;;;;27.15;16.75;;;-3274.10;92.70;;;;;;5022623;28;20447;-40
2024/01/10 03:00:11;;;;;;;26.88;15.82;;;-3274.20;93.00;;;;;;5032027;28;20526;-43
2024/01/10 03:02:37;;;;;;;28.08;17.05;;;-3274.30;93.10;;;;;;5031822;28;20209;-40
2024/01/10 03:05:04;;;;;;;25.95;13.75;;;-3274.40;93.10;;;;;;5028312;28;20124;-43
2024/01/10 03:07:30;;;;;;;24.92;13.02;;;-3274.40;93.10;;;;;;5012044;28;20052;-41
2024/01/10 03:09:57;;;;;;;19.85;13.10;;;-3274.40;93.00;;;;;;5012033;28;20030;-40
2024/01/10 03:12:24;;;;;;;25.20;14.57;;;-3274.40;93.00;;;;;;5012046;28;20032;-44
2024/01/10 03:14:51;;;;;;;29.83;15.57;;;-3274.40;93.00;;;;;;5012032;28;20355;-41
2024/01/10 03:17:16;;;;;;;18.67;12.38;;;-3274.40;93.00;;;;;;5011600;28;20036;-40
2024/01/10 03:19:43;;;;;;;29.83;14.75;;;-3274.40;93.00;;;;;;5014021;28;20034;-40
2024/01/10 03:22:11;;;;;;;24.80;14.23;;;-3274.40;93.20;;;;;;5031727;28;20106;-41
2024/01/10 03:24:40;;;;;;;42.42;16.17;;;-3274.40;93.10;;;;;;5031660;28;20033;-40
2024/01/10 03:27:06;;;;;;;23.45;14.82;;;-3274.40;93.00;;;;;;5012820;28;20033;-40
2024/01/10 03:29:35;;;;;;;29.30;17.42;;;-3274.40;93.00;;;;;;4993322;28;20045;-40
2024/01/10 03:32:01;;;;;;;30.17;14.68;;;-3274.40;93.10;;;;;;5011611;28;20109;-40
2024/01/10 03:34:28;;;;;;;23.80;13.98;;;-3274.40;93.10;;;;;;4994177;28;20030;-42
2024/01/10 03:36:54;;;;;;;27.77;13.23;;;-3274.40;92.90;;;;;;5011697;28;20037;-40
2024/01/10 03:39:24;;;;;;;24.90;13.73;;;-3274.30;92.90;;;;;;5085947;27;20027;-40
2024/01/10 03:41:53;;;;;;;26.10;13.30;;;-3274.30;93.10;;;;;;5071349;27;20100;-40
2024/01/10 03:44:20;;;;;;;19.40;12.02;;;-3274.30;93.00;;;;;;5011594;28;20065;-41
2024/01/10 03:46:49;;;;;;;21.55;12.38;;;-3274.40;93.20;;;;;;4994077;28;20042;-40
2024/01/10 03:49:16;;;;;;;27.35;13.32;;;-3274.40;93.20;;;;;;5011487;28;20091;-40
2024/01/10 03:51:42;;;;;;;22.33;14.30;;;-3274.30;93.00;;;;;;5011082;28;20104;-40
2024/01/10 03:54:09;;;;;;;25.90;14.48;;;-3274.30;93.00;;;;;;5010968;28;20055;-40
2024/01/10 03:56:35;;;;;;;24.33;13.30;;;-3274.30;93.20;;;;;;5011132;28;20026;-41
2024/01/10 03:59:02;;;;;;;22.90;13.02;;;-3274.40;93.20;;;;;;5010688;28;20034;-40
2024/01/10 04:01:29;;;;;;;26.70;15.43;;;-3274.40;93.20;;;;;;5010860;28;20489;-40
2024/01/10 04:03:56;;;;;;;24.27;13.18;;;-3274.40;93.10;;;;;;4993355;28;20038;-40
2024/01/10 04:06:22;;;;;;;25.40;12.93;;;-3274.40;93.00;;;;;;5011058;28;20041;-41
2024/01/10 04:08:52;;;;;;;23.45;14.02;;;-3274.50;93.00;;;;;;5011341;28;20025;-42
2024/01/10 04:11:19;;;;;;;25.17;14.15;;;-3274.40;92.90;;;;;;5011198;28;20083;-40
2024/01/10 04:13:47;;;;;;;25.88;15.32;;;-3274.40;92.70;;;;;;5011269;28;20110;-40
2024/01/10 04:16:14;;;;;;;23.25;13.80;;;-3274.40;92.80;;;;;;5011324;28;20079;-42
2024/01/10 04:18:42;;;;;;;25.08;15.07;;;-3274.40;92.80;;;;;;5011242;28;20058;-41
2024/01/10 04:21:09;;;;;;;27.50;14.98;;;-3274.40;92.70;;;;;;5010960;28;20665;-40
2024/01/10 04:23:39;;;;;;;22.80;13.23;;;-3274.40;92.80;;;;;;4993420;28;20083;-40
2024/01/10 04:26:05;;;;;;;24.25;13.30;;;-3274.40;92.70;;;;;;5010863;28;20074;-42
2024/01/10 04:28:35;;;;;;;25.00;13.02;;;-3274.30;92.70;;;;;;4993668;28;20049;-40
2024/01/10 04:31:06;;;;;;;26.48;14.23;;;-3274.30;92.60;;;;;;5011349;28;20029;-41
2024/01/10 04:33:31;;;;;;;29.00;14.18;;;-3274.30;92.50;;;;;;5010914;28;20026;-40
2024/01/10 04:35:57;;;;;;;25.45;12.70;;;-3274.20;92.40;;;;;;5010666;28;20033;-41
2024/01/10 04:38:26;;;;;;;26.42;14.82;;;-3274.20;92.60;;;;;;5053964;27;20023;-40
2024/01/10 04:40:53;;;;;;;26.85;14.73;;;-3274.30;92.70;;;;;;5134127;27;20015;-42
2024/01/10 04:43:20;;;;;;;22.30;12.82;;;-3274.20;92.50;;;;;;5134270;27;20055;-40
2024/01/10 04:45:46;;;;;;;21.33;12.63;;;-3274.30;92.60;;;;;;5031356;27;20041;-43
2024/01/10 04:48:13;;;;;;;23.95;12.77;;;-3274.20;92.40;;;;;;5010349;28;20466;-40
2024/01/10 04:50:39;;;;;;;24.95;14.25;;;-3274.20;92.40;;;;;;5010777;28;20038;-41
2024/01/10 04:53:09;;;;;;;23.10;12.70;;;-3274.20;92.70;;;;;;5010461;28;20106;-43
2024/01/10 04:55:36;;;;;;;;;;;-3274.20;92.70;;;;;;5011226;28;20037;-41
2024/01/10 04:58:03;;;;;;;22.88;12.65;;;-3274.20;92.60;;;;;;5010442;28;20349;-41
2024/01/10 05:00:30;;;;;;;21.90;11.60;;;-3274.20;92.40;;;;;;5010091;28;20504;-42
2024/01/10 05:02:57;;;;;;;28.65;13.10;;;-3274.10;92.40;;;;;;4993390;28;20140;-40
2024/01/10 05:05:23;;;;;;;24.25;12.40;;;-3274.10;92.30;;;;;;5010453;28;20049;-40
2024/01/10 05:07:51;;;;;;;24.15;13.43;;;-3274.10;92.30;;;;;;5010279;28;20083;-43
2024/01/10 05:10:17;;;;;;;21.52;12.02;;;-3274.00;92.20;;;;;;5010337;28;20357;-41
2024/01/10 05:12:47;;;;;;;21.75;11.25;;;-3273.90;92.20;;;;;;4992839;28;20503;-42
2024/01/10 05:15:14;;;;;;;22.80;12.98;;;-3273.90;92.30;;;;;;5010378;28;20083;-43
2024/01/10 05:17:43;;;;;;;24.63;13.82;;;-3273.90;92.40;;;;;;5010149;28;20033;-42
2024/01/10 05:20:10;;;;;;;26.30;13.40;;;-3273.90;92.40;;;;;;5010265;28;20030;-40
2024/01/10 05:22:37;;;;;;;25.33;13.85;;;-3273.90;92.60;;;;;;5010001;28;20285;-40
2024/01/10 05:25:04;;;;;;;26.92;14.02;;;-3273.90;92.40;;;;;;5010081;28;20062;-40
2024/01/10 05:27:31;;;;;;;22.38;12.23;;;-3274.00;92.50;;;;;;4992830;28;20138;-41
2024/01/10 05:29:57;;;;;;;22.55;12.77;;;-3274.00;92.60;;;;;;5009823;28;20040;-41
2024/01/10 05:32:22;;;;;;;23.40;12.80;;;-3274.00;92.70;;;;;;5010035;28;20100;-40
2024/01/10 05:34:49;;;;;;;25.05;13.43;;;-3274.10;92.70;;;;;;5011282;28;20124;-41
2024/01/10 05:37:16;;;;;;;23.10;12.98;;;-3274.00;92.40;;;;;;5029483;28;20026;-40
2024/01/10 05:39:43;;;;;;;18.83;10.55;;;-3274.00;92.60;;;;;;5114372;27;20067;-40
2024/01/10 05:42:10;;;;;;;22.25;11.27;;;-3274.00;92.50;;;;;;5029507;28;20047;-40
2024/01/10 05:44:40;;;;;;;21.08;11.02;;;-3274.00;92.50;;;;;;5029463;28;20057;-41
2024/01/10 05:47:06;;;;;;;18.55;10.77;;;-3274.10;92.60;;;;;;5029699;28;20051;-40
2024/01/10 05:49:35;;;;;;;21.20;11.40;;;-3274.10;92.70;;;;;;5021844;28;20038;-40
2024/01/10 05:52:03;;;;;;;23.25;12.10;;;-3274.10;92.60;;;;;;5010002;28;20030;-40
2024/01/10 05:54:30;;;;;;;21.30;11.05;;;-3274.10;92.50;;;;;;5004063;28;20094;-42
2024/01/10 05:56:57;;;;;;;22.30;10.63;;;-3274.10;92.60;;;;;;5029330;28;20025;-40
2024/01/10 05:59:25;;;;;;;20.25;11.88;;;-3274.20;92.50;;;;;;5019158;28;20458;-40
2024/01/10 06:01:51;;;;;;;21.30;10.70;;;-3274.20;92.60;;;;;;5009471;28;20064;-40
2024/01/10 06:04:18;;;;;;;23.90;11.70;;;-3274.30;92.60;;;;;;5010244;28;20461;-43
2024/01/10 06:06:46;;;;;;;21.92;11.23;;;-3274.30;92.50;;;;;;5029147;28;20363;-40
2024/01/10 06:09:13;;;;;;;21.40;10.88;;;-3274.20;92.40;;;;;;5028978;28;20036;-43
2024/01/10 06:11:43;;;;;;;22.83;11.80;;;-3274.20;92.40;;;;;;5012110;28;20072;-40
2024/01/10 06:14:10;;;;;;;21.52;12.68;;;-3274.20;92.30;;;;;;5010087;28;20037;-40
2024/01/10 06:16:36;;;;;;;21.38;12.63;;;-3274.20;92.40;;;;;;5029208;28;20029;-44
2024/01/10 06:19:04;;;;;;;22.77;11.90;;;-3274.30;92.50;;;;;;5029116;28;20037;-40
2024/01/10 06:21:32;;;;;;;19.33;10.80;;;-3274.30;92.40;;;;;;5011262;28;20026;-40
2024/01/10 06:23:59;;;;;;;20.98;12.45;;;-3274.30;92.30;;;;;;5008905;28;20042;-43
2024/01/10 06:26:29;;;;;;;20.08;11.57;;;-3274.30;92.40;;;;;;4999867;28;20040;-41
2024/01/10 06:28:56;;;;;;;22.40;11.90;;;-3274.30;92.20;;;;;;5028974;28;20057;-41
2024/01/10 06:31:23;;;;;;;27.67;13.50;;;-3274.30;92.30;;;;;;5028902;28;20023;-40
2024/01/10 06:33:50;;;;;;;23.58;13.15;;;-3274.40;92.30;;;;;;5028642;28;20037;-40
2024/01/10 06:36:16;;;;;;;21.20;10.80;;;-3274.30;92.10;;;;;;5018776;28;20030;-40
2024/01/10 06:38:43;;;;;;;21.52;12.23;;;-3274.20;92.00;;;;;;5067681;28;20042;-41
2024/01/10 06:41:13;;;;;;;21.92;12.02;;;-3274.20;92.00;;;;;;5132250;28;20191;-40
2024/01/10 06:43:41;;;;;;;24.17;12.20;;;-3274.10;91.80;;;;;;5111267;28;20046;-40
2024/01/10 06:46:07;;;;;;;21.15;12.80;;;-3274.10;92.10;;;;;;5028743;28;20447;-43
2024/01/10 06:48:34;;;;;;;21.83;12.02;;;-3274.10;92.00;;;;;;5028676;28;20029;-40
2024/01/10 06:51:01;;;;;;;21.15;11.13;;;-3273.90;91.70;;;;;;5028776;28;20028;-45
2024/01/10 06:53:34;;;;;;;21.08;11.65;;;-3273.90;91.90;;;;;;5011400;28;20103;-41
2024/01/10 06:56:00;;;;;;;20.35;10.93;;;-3273.90;91.80;;;;;;5009118;28;20396;-41
2024/01/10 06:58:33;;;;;;;24.80;12.77;;;-3273.90;92.10;;;;;;5008947;28;20040;-41
2024/01/10 07:01:04;;;;;;;20.80;12.13;;;-3274.00;92.20;;;;;;5008747;28;20336;-40
2024/01/10 07:03:32;;;;;;;25.45;12.10;;;-3273.90;92.10;;;;;;5009387;28;20037;-40
2024/01/10 07:05:59;;;;;;;22.42;12.02;;;-3273.90;91.90;;;;;;5012032;28;20075;-40
2024/01/10 07:08:30;;;;;;;25.02;12.95;;;-3273.90;92.00;;;;;;5012160;28;20038;-40
2024/01/10 07:10:57;;;;;;;24.10;13.10;;;-3273.90;92.00;;;;;;4995444;28;20108;-41
2024/01/10 07:13:24;;;;;;;24.30;13.95;;;-3273.90;92.10;;;;;;5011959;28;20028;-40
2024/01/10 07:15:52;;;;;;;27.55;13.57;;;-3273.90;92.10;;;;;;5012126;28;20083;-40
2024/01/10 07:18:19;;;;;;;23.23;13.55;;;-3274.00;92.10;;;;;;5012033;28;20054;-40
2024/01/10 07:20:46;;;;;;;26.27;12.90;;;-3274.00;92.00;;;;;;5011826;28;20026;-43
2024/01/10 07:23:12;;;;;;;28.08;15.15;;;-3274.00;92.00;;;;;;5012021;28;20025;-40
2024/01/10 07:25:39;;;;;;;22.95;14.32;;;-3273.90;91.90;;;;;;5011995;28;20040;-42
2024/01/10 07:28:08;;;;;;;29.30;14.32;;;-3273.90;91.90;;;;;;5011990;28;20121;-40
2024/01/10 07:30:35;;;;;;;28.13;15.35;;;-3274.10;92.20;;;;;;5011852;28;20467;-40
2024/01/10 07:33:03;;;;;;;24.95;13.63;;;-3274.00;92.10;;;;;;5011652;28;20056;-40
2024/01/10 07:35:30;;;;;;;24.88;13.52;;;-3274.10;92.20;;;;;;4994959;28;20033;-40
2024/01/10 07:37:58;;;;;;;24.55;14.18;;;-3274.00;91.90;;;;;;5043029;27;20030;-41
2024/01/10 07:40:23;;;;;;;31.42;17.70;;;-3274.00;91.90;;;;;;5135904;27;20031;-41
2024/01/10 07:42:49;;;;;;;30.52;15.52;;;-3274.10;92.10;;;;;;5135296;27;20488;-40
2024/01/10 07:45:16;;;;;;;25.73;14.57;;;-3274.10;92.00;;;;;;5061912;27;20033;-42
2024/01/10 07:47:46;;;;;;;26.67;13.95;;;-3274.10;92.00;;;;;;5031639;28;20045;-40
2024/01/10 07:50:14;;;;;;;31.02;14.65;;;-3274.10;91.80;;;;;;5027074;28;20398;-41
2024/01/10 07:52:42;;;;;;;29.02;14.75;;;-3274.20;92.00;;;;;;5011525;28;20014;-40
2024/01/10 07:55:09;;;;;;;27.40;14.60;;;-3274.10;91.90;;;;;;5011622;28;20113;-42
2024/01/10 07:57:38;;;;;;;28.48;13.80;;;-3274.10;91.80;;;;;;5011523;28;20030;-40
2024/01/10 08:00:08;;;;;;;;;;;-3274.10;91.70;;;;;;5011976;28;20048;-40
2024/01/10 08:02:34;;;;;;;26.27;14.45;;;-3274.10;91.50;;;;;;5012046;28;19909;-40
2024/01/10 08:05:05;;;;;;;28.48;14.02;;;-3274.00;91.40;;;;;;5030979;28;20041;-40
2024/01/10 08:07:36;;;;;;;27.70;14.48;;;-3274.00;91.50;;;;;;5031207;28;20040;-43
2024/01/10 08:10:09;;;;;;;29.88;15.85;;;-3274.00;91.40;;;;;;5015662;28;20037;-40
2024/01/10 08:12:38;;;;;;;29.58;16.35;;;-3274.00;91.50;;;;;;5011311;28;20430;-40
2024/01/10 08:15:08;;;;;;;29.63;14.63;;;-3274.00;91.40;;;;;;5011334;28;20025;-40
2024/01/10 08:17:35;;;;;;;26.58;16.13;;;-3273.90;91.20;;;;;;5015947;28;20049;-40
2024/01/10 08:20:03;;;;;;;25.20;13.50;;;-3273.90;91.20;;;;;;5031356;28;20036;-40
2024/01/10 08:22:33;;;;;;;25.40;14.88;;;-3273.90;91.10;;;;;;5028159;28;20033;-41
2024/01/10 08:25:00;;;;;;;28.15;15.30;;;-3273.90;91.30;;;;;;5011353;28;20129;-40
2024/01/10 08:27:27;;;;;;;23.77;13.85;;;-3274.00;91.30;;;;;;5011154;28;20029;-40
2024/01/10 08:29:57;;;;;;;31.65;14.82;;;-3274.00;91.20;;;;;;5011165;28;20041;-42
2024/01/10 08:32:23;;;;;;;31.52;14.93;;;-3273.90;91.00;;;;;;5011158;28;20038;-40
2024/01/10 08:34:50;;;;;;;28.33;16.35;;;-3273.90;91.20;;;;;;5011275;28;20029;-41
2024/01/10 08:37:17;;;;;;;29.23;15.38;;;-3273.90;91.00;;;;;;5010909;28;20030;-40
2024/01/10 08:39:44;;;;;;;24.85;13.80;;;-3274.00;91.10;;;;;;5122854;27;20023;-40
2024/01/10 08:42:11;;;;;;;23.52;12.85;;;-3273.90;91.00;;;;;;5101365;27;20484;-41
2024/01/10 08:44:38;;;;;;;24.38;14.10;;;-3274.00;91.20;;;;;;5030583;28;20072;-42
2024/01/10 08:47:04;;;;;;;27.45;15.20;;;-3274.10;91.30;;;;;;5016528;28;20034;-41
2024/01/10 08:49:34;;;;;;;28.88;16.88;;;-3274.00;91.00;;;;;;5010561;28;20358;-40
2024/01/10 08:52:01;;;;;;;27.75;16.92;;;-3274.00;91.20;;;;;;5010667;28;20570;-40
2024/01/10 08:54:28;;;;;;;29.20;16.35;;;-3274.10;91.20;;;;;;5010575;28;20018;-40
2024/01/10 08:56:55;;;;;;;26.20;15.80;;;-3274.00;91.20;;;;;;5028729;28;20031;-40
2024/01/10 08:59:22;;;;;;;28.10;17.23;;;-3274.00;91.30;;;;;;5030354;28;20025;-40
2024/01/10 09:01:49;;;;;;;34.75;21.67;;;-3274.00;91.50;;;;;;5030329;28;20033;-40
2024/01/10 09:04:16;;;;;;;24.13;15.82;;;-3274.10;91.50;;;;;;5015999;28;20044;-40
2024/01/10 09:06:41;;;;;;;25.20;13.25;;;-3274.00;91.30;;;;;;5010397;28;20105;-42
2024/01/10 09:09:08;;;;;;;28.02;16.60;;;-3274.10;91.40;;;;;;4992985;28;20522;-40
2024/01/10 09:11:35;;;;;;;27.27;16.98;;;-3274.10;91.40;;;;;;5009954;28;20147;-41
2024/01/10 09:14:02;;;;;;;26.80;17.52;;;-3274.20;91.50;;;;;;5009813;28;20054;-40
2024/01/10 09:16:29;;;;;;;24.23;13.65;;;-3274.20;91.40;;;;;;5009983;28;20037;-41
2024/01/10 09:19:00;;;;;;;24.85;15.52;;;-3274.30;91.30;;;;;;5009794;28;20030;-40
2024/01/10 09:21:28;;;;;;;24.92;14.45;;;-3274.30;91.30;;;;;;5010282;28;20029;-40
2024/01/10 09:23:55;;;;;;;23.08;13.95;;;-3274.30;91.00;;;;;;5010305;28;20029;-40
2024/01/10 09:26:23;;;;;;;27.63;16.50;;;-3274.30;91.00;;;;;;4993150;28;20032;-41
2024/01/10 09:28:49;;;;;;;29.17;14.88;;;-3274.30;91.00;;;;;;5009891;28;20094;-40
2024/01/10 09:31:19;;;;;;;28.92;15.02;;;-3274.40;91.00;;;;;;5010020;28;20029;-41
2024/01/10 09:33:46;;;;;;;28.98;17.83;;;-3274.50;91.00;;;;;;5010252;28;20033;-40
2024/01/10 09:36:14;;;;;;;26.40;15.75;;;-3274.40;90.80;;;;;;5010337;28;20030;-41
2024/01/10 09:38:41;;;;;;;27.40;17.83;;;-3274.50;90.70;;;;;;5073231;27;20031;-40
2024/01/10 09:41:09;;;;;;;36.25;27.13;;;-3274.40;90.70;;;;;;5132014;27;20091;-40
2024/01/10 09:43:36;;;;;;;29.48;18.50;;;-3274.50;90.80;;;;;;5029144;28;20049;-40
2024/01/10 09:46:07;;;;;;;21.77;13.73;;;-3274.50;90.80;;;;;;5029750;28;20046;-40
2024/01/10 09:48:34;;;;;;;24.55;12.88;;;-3274.50;90.80;;;;;;4996803;28;20431;-40
2024/01/10 09:51:01;;;;;;;22.95;13.63;;;-3274.50;90.80;;;;;;5009754;28;20025;-40
2024/01/10 09:53:31;;;;;;;23.40;13.80;;;-3274.50;90.60;;;;;;5010087;28;20074;-40
2024/01/10 09:56:01;;;;;;;23.52;12.80;;;-3274.40;90.60;;;;;;5009852;28;20026;-42
2024/01/10 09:58:27;;;;;;;22.55;13.52;;;-3274.50;90.70;;;;;;5010748;28;20479;-43
2024/01/10 10:00:55;;;;;;;23.17;15.32;;;-3274.50;90.80;;;;;;5029165;28;20037;-40
2024/01/10 10:03:21;;;;;;;21.17;12.02;;;-3274.60;90.70;;;;;;5029468;28;20030;-40
2024/01/10 10:05:47;;;;;;;21.48;12.48;;;-3274.60;90.80;;;;;;5029387;28;20449;-40
2024/01/10 10:08:15;;;;;;;25.23;13.35;;;-3274.60;90.90;;;;;;5016260;28;20029;-40
2024/01/10 10:10:46;;;;;;;22.13;13.38;;;-3274.60;90.70;;;;;;5009699;28;20034;-40
2024/01/10 10:13:25;;;;;;;20.92;12.88;;;-3274.80;90.80;;;;;;5009595;28;20105;-40
2024/01/10 10:16:00;;;;;;;;;;;-3274.80;90.90;;;;;;5017254;28;20024;-41
2024/01/10 10:18:29;;;;;;;21.95;11.55;;;-3274.90;90.90;;;;;;5029222;28;19909;-41
2024/01/10 10:21:29;;;;;;;19.02;12.20;;;-3275.10;90.90;;;;;;5029342;28;20022;-40
2024/01/10 10:24:05;;;;;;;23.10;15.20;;;-3275.20;90.80;;;;;;4995758;28;20042;-40
2024/01/10 10:26:35;;;;;;;19.35;12.70;;;-3275.30;90.70;;;;;;5009443;28;20037;-40
2024/01/10 10:29:05;;;;;;;;;;;-3275.20;90.40;;;;;;5009852;28;20083;-40
2024/01/10 10:31:32;;;;;;;21.77;13.15;;;-3275.20;90.20;;;;;;4991823;28;19909;-40
2024/01/10 10:34:02;;;;;;;22.27;13.52;;;-3275.20;90.20;;;;;;5009192;28;20026;-40
2024/01/10 10:36:31;;;;;;;26.77;15.65;;;-3275.10;89.80;;;;;;5009180;28;20025;-40
2024/01/10 10:38:59;;;;;;;;;;;-3275.00;89.70;;;;;;5088401;27;20390;-40
2024/01/10 10:41:29;;;;;;;23.73;13.73;;;-3275.00;89.90;;;;;;5137146;27;19914;-40
2024/01/10 10:43:58;;;;;;;18.20;11.82;;;-3275.00;89.80;;;;;;5136906;27;20054;-40
2024/01/10 10:46:27;;;;;;;21.33;12.63;;;-3275.00;89.80;;;;;;5106686;27;20034;-41
2024/01/10 10:48:57;;;;;;;25.48;14.07;;;-3275.00;89.90;;;;;;5012574;28;20446;-41
2024/01/10 10:51:32;;;;;;;25.98;14.10;;;-3274.90;89.90;;;;;;5012634;28;20520;-40
2024/01/10 10:54:02;;;;;;;21.15;13.00;;;-3274.90;89.80;;;;;;5012670;28;20097;-43
2024/01/10 10:56:32;;;;;;;20.30;12.70;;;-3274.90;89.70;;;;;;5012383;28;20383;-40
2024/01/10 10:59:01;;;;;;;20.95;11.00;;;-3274.90;89.90;;;;;;5012576;28;20090;-40
2024/01/10 11:01:28;;;;;;;22.00;15.05;;;-3274.90;90.00;;;;;;5012505;28;20316;-42
2024/01/10 11:03:55;;;;;;;20.50;13.10;;;-3275.00;89.90;;;;;;4995070;28;20098;-41
2024/01/10 11:06:22;;;;;;;22.58;13.98;;;-3275.00;89.80;;;;;;5012466;28;20396;-45
2024/01/10 11:09:06;;;;;;;19.20;11.73;;;-3274.90;89.70;;;;;;5012184;28;20107;-41
2024/01/10 11:12:05;;;;;;;19.08;11.27;;;-3274.90;89.80;;;;;;5012136;28;20464;-41
2024/01/10 11:14:49;;;;;;;21.48;12.93;;;-3275.00;89.90;;;;;;4994977;28;20030;-40
2024/01/10 11:17:56;;;;;;;19.83;11.57;;;-3274.90;89.80;;;;;;5012179;28;20329;-41
2024/01/10 11:20:40;;;;;;;18.92;10.95;;;-3275.00;90.10;;;;;;5003982;28;20034;-40
2024/01/10 11:23:35;;;;;;;19.77;10.80;;;-3274.90;89.80;;;;;;5011771;28;20026;-40
2024/01/10 11:26:02;;;;;;;17.83;10.48;;;-3275.00;89.80;;;;;;5011952;28;20026;-40
2024/01/10 11:28:33;;;;;;;19.02;10.50;;;-3275.00;89.70;;;;;;5012148;28;20055;-40
2024/01/10 11:30:59;;;;;;;19.95;11.27;;;-3275.10;89.80;;;;;;5011615;28;20315;-40
2024/01/10 11:33:40;;;;;;;23.05;14.43;;;-3275.20;89.90;;;;;;5011860;28;20026;-41
2024/01/10 11:36:11;;;;;;;22.25;13.07;;;-3275.20;90.00;;;;;;5012014;28;20052;-40
2024/01/10 11:38:54;;;;;;;20.38;12.55;;;-3275.20;89.70;;;;;;5066694;27;20035;-40
2024/01/10 11:41:40;;;;;;;20.67;13.65;;;-3275.10;89.50;;;;;;5135310;27;20027;-40
2024/01/10 11:44:17;;;;;;;23.95;13.63;;;-3275.10;89.70;;;;;;5135918;27;20051;-40
2024/01/10 11:47:00;;;;;;;21.45;11.57;;;-3275.10;89.60;;;;;;5129695;27;20015;-40
2024/01/10 11:49:27;;;;;;;21.63;11.45;;;-3275.20;89.70;;;;;;5011096;28;20060;-40
2024/01/10 11:51:58;;;;;;;25.17;14.70;;;-3275.30;89.80;;;;;;5010168;28;20022;-40
2024/01/10 11:54:44;;;;;;;18.17;10.07;;;-3275.30;89.40;;;;;;5010945;28;20022;-40
2024/01/10 11:57:21;;;;;;;22.67;11.52;;;-3275.30;89.20;;;;;;5011013;28;20029;-40
2024/01/10 11:59:53;;;;;;;19.30;11.02;;;-3275.30;89.00;;;;;;5011240;28;20026;-40
2024/01/10 12:02:20;;;;;;;18.45;11.02;;;-3275.30;88.90;;;;;;5024678;28;20037;-40
2024/01/10 12:04:48;;;;;;;20.58;11.85;;;-3275.30;88.90;;;;;;5024309;28;20114;-40
2024/01/10 12:07:16;;;;;;;17.73;11.35;;;-3275.30;88.60;;;;;;5011815;28;20026;-42